Time;durP1;ratioP1;P1;durP2;ratioP2;P2;SDS_P1;SDS_P2;PMS_P1;PMS_P2;Temp;Humidity;BMP_temperature;BMP_pressure;BME280_temperature;BME280_humidity;BME280_pressure;Samples;Min_cycle;Max_cycle;Signal;HPM_P1;HPM_P2
2022/01/01 00:02:04;;;;;;;25.33;10.13;;;13.20;99.90;;;;;;5078873;28;20402;-60
2022/01/01 00:04:30;;;;;;;25.92;9.35;;;13.20;99.90;;;;;;5078971;28;20333;-59
2022/01/01 00:06:56;;;;;;;22.92;10.25;;;13.10;99.90;;;;;;5078881;28;20040;-60
2022/01/01 00:09:22;;;;;;;23.65;9.73;;;13.10;99.90;;;;;;5079072;28;20089;-60
2022/01/01 00:11:47;;;;;;;24.80;9.40;;;13.10;99.90;;;;;;5078660;28;20032;-60
2022/01/01 00:14:13;;;;;;;24.33;10.38;;;13.10;99.90;;;;;;5078807;28;20032;-61
2022/01/01 00:16:39;;;;;;;28.45;11.48;;;13.20;99.90;;;;;;5078633;28;20044;-60
2022/01/01 00:19:05;;;;;;;27.38;12.10;;;13.10;99.90;;;;;;5078604;28;20063;-61
2022/01/01 00:21:31;;;;;;;21.88;12.40;;;13.00;99.90;;;;;;5078614;28;20028;-61
2022/01/01 00:23:57;;;;;;;27.00;13.38;;;13.00;99.90;;;;;;5078618;28;20031;-60
2022/01/01 00:26:23;;;;;;;20.67;10.65;;;12.90;99.90;;;;;;5078467;28;20043;-60
2022/01/01 00:28:48;;;;;;;24.40;11.98;;;12.80;99.90;;;;;;5078450;28;20395;-60
2022/01/01 00:31:14;;;;;;;22.98;12.38;;;12.70;99.90;;;;;;5078420;28;20052;-60
2022/01/01 00:33:40;;;;;;;23.40;13.23;;;12.60;99.90;;;;;;5078296;28;20032;-61
2022/01/01 00:36:06;;;;;;;29.98;15.35;;;12.60;99.90;;;;;;5078007;28;20411;-60
2022/01/01 00:38:32;;;;;;;25.15;13.85;;;12.50;99.90;;;;;;5078393;28;20463;-60
2022/01/01 00:40:58;;;;;;;23.27;13.10;;;12.60;99.90;;;;;;5078496;28;20071;-61
2022/01/01 00:43:25;;;;;;;26.42;14.48;;;12.50;99.90;;;;;;5077688;28;20299;-61
2022/01/01 00:45:50;;;;;;;25.73;14.48;;;12.50;99.90;;;;;;5078071;28;20047;-61
2022/01/01 00:48:16;;;;;;;30.08;14.07;;;12.60;99.90;;;;;;5078204;28;20392;-61
2022/01/01 00:50:42;;;;;;;26.33;16.27;;;12.50;99.90;;;;;;5077861;28;20410;-61
2022/01/01 00:53:08;;;;;;;25.65;15.25;;;12.50;99.90;;;;;;5078228;28;20056;-62
2022/01/01 00:55:34;;;;;;;25.92;14.93;;;12.40;99.90;;;;;;5077266;28;20032;-60
2022/01/01 00:58:00;;;;;;;28.63;14.90;;;12.40;99.90;;;;;;5077766;28;20041;-60
2022/01/01 01:00:26;;;;;;;25.95;13.80;;;12.40;99.90;;;;;;5077952;28;20044;-61
2022/01/01 01:02:52;;;;;;;24.88;12.88;;;12.40;99.90;;;;;;5077615;28;20300;-61
2022/01/01 01:05:18;;;;;;;27.38;15.68;;;12.30;99.90;;;;;;5076902;28;20112;-61
2022/01/01 01:07:44;;;;;;;22.27;13.30;;;12.30;99.90;;;;;;5077830;28;20392;-61
2022/01/01 01:10:12;;;;;;;21.92;15.65;;;12.30;99.90;;;;;;5060351;28;20115;-61
2022/01/01 01:12:45;;;;;;;27.00;12.82;;;12.30;99.90;;;;;;5077831;28;20052;-61
2022/01/01 01:15:17;;;;;;;30.35;14.57;;;12.30;99.90;;;;;;5078279;28;20101;-61
2022/01/01 01:17:48;;;;;;;23.33;12.48;;;12.30;99.90;;;;;;5077084;28;20037;-61
2022/01/01 01:20:15;;;;;;;21.45;12.50;;;12.30;99.90;;;;;;5078098;28;20311;-61
2022/01/01 01:22:41;;;;;;;20.73;14.10;;;12.30;99.90;;;;;;5077414;28;20383;-61
2022/01/01 01:25:08;;;;;;;23.10;12.38;;;12.40;99.90;;;;;;5077536;28;20054;-60
2022/01/01 01:27:36;;;;;;;21.20;12.13;;;12.50;99.90;;;;;;5077357;28;20457;-60
2022/01/01 01:30:09;;;;;;;21.02;11.60;;;12.40;99.90;;;;;;5077406;28;20040;-60
2022/01/01 01:32:35;;;;;;;19.00;11.60;;;12.40;99.90;;;;;;5077271;28;20108;-60
2022/01/01 01:35:02;;;;;;;21.80;11.40;;;12.40;99.90;;;;;;5077115;28;20059;-60
2022/01/01 01:37:28;;;;;;;21.95;10.38;;;12.50;99.90;;;;;;5077210;28;20456;-61
2022/01/01 01:39:56;;;;;;;23.30;11.05;;;12.60;99.90;;;;;;5076642;28;20020;-61
2022/01/01 01:42:24;;;;;;;18.45;11.07;;;12.60;99.90;;;;;;5077094;28;20269;-62
2022/01/01 01:44:53;;;;;;;19.58;10.48;;;12.70;99.90;;;;;;5077381;28;20410;-59
2022/01/01 01:47:27;;;;;;;16.13;9.90;;;12.80;99.90;;;;;;5076920;28;20089;-60
2022/01/01 01:49:53;;;;;;;19.35;10.50;;;12.80;99.90;;;;;;5077068;28;20399;-61
2022/01/01 01:52:20;;;;;;;18.38;9.77;;;12.80;99.90;;;;;;5076099;28;20028;-61
2022/01/01 01:54:47;;;;;;;16.98;9.48;;;12.80;99.90;;;;;;5076000;28;20107;-61
2022/01/01 01:57:13;;;;;;;15.30;9.05;;;12.80;99.90;;;;;;5077017;28;20047;-61
2022/01/01 01:59:43;;;;;;;16.27;9.93;;;12.80;99.90;;;;;;5076310;28;20510;-60
2022/01/01 02:02:09;;;;;;;16.05;8.68;;;12.80;99.90;;;;;;5077055;28;20118;-61
2022/01/01 02:04:35;;;;;;;20.10;8.85;;;12.80;99.90;;;;;;5076749;28;20063;-61
2022/01/01 02:07:05;;;;;;;20.90;8.88;;;12.70;99.90;;;;;;5076053;28;20121;-61
2022/01/01 02:09:31;;;;;;;18.05;8.10;;;12.70;99.90;;;;;;5076592;28;20418;-61
2022/01/01 02:11:58;;;;;;;17.25;8.65;;;12.80;99.90;;;;;;5076157;28;20039;-60
2022/01/01 02:14:37;;;;;;;16.95;7.72;;;12.80;99.90;;;;;;5059578;28;20420;-60
2022/01/01 02:19:30;;;;;;;18.80;8.30;;;12.80;99.90;;;;;;5076872;28;20029;-61
2022/01/01 02:22:03;;;;;;;16.38;8.15;;;12.80;99.90;;;;;;5077206;28;20033;-61
2022/01/01 02:24:29;;;;;;;17.63;8.15;;;12.80;99.90;;;;;;5077219;28;20036;-60
2022/01/01 02:26:55;;;;;;;15.35;8.15;;;12.80;99.90;;;;;;5076682;28;20043;-60
2022/01/01 02:29:20;;;;;;;13.90;7.40;;;12.80;99.90;;;;;;5076732;28;20043;-60
2022/01/01 02:31:46;;;;;;;17.58;7.40;;;12.80;99.90;;;;;;5076701;28;20089;-60
2022/01/01 02:34:12;;;;;;;14.02;6.85;;;12.80;99.90;;;;;;5075876;28;20036;-61
2022/01/01 02:36:41;;;;;;;12.68;6.60;;;12.80;99.90;;;;;;5075587;28;20440;-61
2022/01/01 02:39:25;;;;;;;12.82;6.30;;;12.80;99.90;;;;;;5076638;28;20031;-61
2022/01/01 02:41:53;;;;;;;15.73;6.65;;;12.80;99.90;;;;;;5075936;28;20029;-61
2022/01/01 02:44:23;;;;;;;14.90;7.00;;;12.80;99.90;;;;;;5076520;28;20078;-61
2022/01/01 02:46:51;;;;;;;13.35;5.80;;;12.90;99.90;;;;;;5076541;28;20032;-61
2022/01/01 02:49:17;;;;;;;14.48;6.03;;;12.90;99.90;;;;;;5076491;28;20033;-60
2022/01/01 02:51:42;;;;;;;11.60;6.05;;;12.90;99.90;;;;;;5075657;28;20136;-61
2022/01/01 02:54:08;;;;;;;12.50;5.65;;;12.90;99.90;;;;;;5076492;28;20041;-60
2022/01/01 02:56:34;;;;;;;13.50;5.90;;;12.90;99.90;;;;;;5076883;28;20033;-61
2022/01/01 02:59:00;;;;;;;13.73;5.75;;;12.90;99.90;;;;;;5075692;28;20395;-62
2022/01/01 03:01:26;;;;;;;13.40;5.93;;;12.90;99.90;;;;;;5077002;28;20021;-61
2022/01/01 03:03:51;;;;;;;13.82;5.65;;;12.80;99.90;;;;;;5076351;28;20032;-60
2022/01/01 03:06:20;;;;;;;15.00;5.72;;;12.80;99.90;;;;;;5079532;28;20032;-61
2022/01/01 03:08:55;;;;;;;12.05;5.55;;;12.90;99.90;;;;;;5079974;28;20396;-61
2022/01/01 03:11:21;;;;;;;15.30;5.43;;;12.90;99.90;;;;;;5080039;28;20042;-61
2022/01/01 03:13:47;;;;;;;14.20;5.70;;;12.90;99.90;;;;;;5079138;28;20024;-61
2022/01/01 03:16:13;;;;;;;17.67;5.88;;;12.90;99.90;;;;;;5079918;28;20075;-61
2022/01/01 03:18:40;;;;;;;11.15;5.45;;;12.90;99.90;;;;;;5078930;28;20032;-61
2022/01/01 03:21:07;;;;;;;14.55;5.78;;;13.00;99.90;;;;;;5079858;28;20033;-61
2022/01/01 03:23:33;;;;;;;12.25;5.35;;;13.00;99.90;;;;;;5079736;28;20031;-61
2022/01/01 03:25:59;;;;;;;9.80;4.93;;;12.90;99.90;;;;;;5079022;28;20041;-61
2022/01/01 03:28:26;;;;;;;15.30;5.00;;;12.90;99.90;;;;;;5079579;28;20304;-60
2022/01/01 03:30:52;;;;;;;11.80;5.10;;;12.90;99.90;;;;;;5079626;28;20027;-60
2022/01/01 03:33:18;;;;;;;11.70;5.60;;;12.90;99.90;;;;;;5079544;28;20039;-60
2022/01/01 03:35:44;;;;;;;12.10;5.07;;;12.90;99.90;;;;;;5079393;28;20040;-59
2022/01/01 03:38:10;;;;;;;12.32;4.95;;;12.90;99.90;;;;;;5079425;28;20028;-60
2022/01/01 03:40:36;;;;;;;11.07;4.97;;;12.90;99.90;;;;;;5079499;28;20307;-60
2022/01/01 03:43:02;;;;;;;12.35;5.43;;;12.80;99.90;;;;;;5078684;28;20028;-58
2022/01/01 03:45:28;;;;;;;12.77;5.38;;;12.80;99.90;;;;;;5079995;28;20033;-59
2022/01/01 03:47:54;;;;;;;10.85;5.50;;;12.70;99.90;;;;;;5079626;28;20032;-60
2022/01/01 03:50:19;;;;;;;12.63;5.13;;;12.70;99.90;;;;;;5079136;28;20055;-60
2022/01/01 03:52:46;;;;;;;14.75;5.47;;;12.70;99.90;;;;;;5079209;28;20391;-59
2022/01/01 03:55:14;;;;;;;12.68;5.15;;;12.70;99.90;;;;;;5079228;28;20055;-59
2022/01/01 03:57:40;;;;;;;12.75;5.78;;;12.70;99.90;;;;;;5079010;28;20342;-60
2022/01/01 04:00:11;;;;;;;10.48;5.70;;;12.70;99.90;;;;;;5079136;28;20032;-59
2022/01/01 04:02:39;;;;;;;15.32;5.43;;;12.70;99.90;;;;;;5079065;28;20029;-59
2022/01/01 04:05:06;;;;;;;16.92;5.57;;;12.70;99.90;;;;;;5079298;28;20031;-59
2022/01/01 04:07:32;;;;;;;14.73;6.15;;;12.60;99.90;;;;;;5078923;28;20036;-59
2022/01/01 04:09:58;;;;;;;15.65;6.15;;;12.60;99.90;;;;;;5078283;28;20033;-59
2022/01/01 04:12:25;;;;;;;12.43;6.28;;;12.60;99.90;;;;;;5078871;28;20043;-60
2022/01/01 04:14:52;;;;;;;10.43;5.30;;;12.60;99.90;;;;;;5078856;28;20031;-60
2022/01/01 04:17:18;;;;;;;15.10;5.95;;;12.60;99.90;;;;;;5076988;28;20035;-60
2022/01/01 04:19:44;;;;;;;14.07;5.82;;;12.60;99.90;;;;;;5078961;28;20089;-60
2022/01/01 04:22:11;;;;;;;12.45;5.75;;;12.70;99.90;;;;;;5078561;28;20112;-60
2022/01/01 04:24:38;;;;;;;14.75;6.35;;;12.70;99.90;;;;;;5078680;28;20028;-60
2022/01/01 04:27:05;;;;;;;14.73;5.75;;;12.70;99.90;;;;;;5078524;28;20081;-60
2022/01/01 04:29:31;;;;;;;14.40;6.07;;;12.60;99.90;;;;;;5078483;28;20032;-61
2022/01/01 04:31:59;;;;;;;11.93;5.95;;;12.50;99.90;;;;;;5078506;28;20025;-61
2022/01/01 04:34:26;;;;;;;13.63;5.47;;;12.40;99.90;;;;;;5078458;28;20028;-61
2022/01/01 04:37:02;;;;;;;13.05;5.88;;;12.40;99.90;;;;;;5078239;28;20045;-61
2022/01/01 04:39:28;;;;;;;11.20;5.63;;;12.40;99.90;;;;;;5078947;28;20048;-61
2022/01/01 04:41:54;;;;;;;14.60;6.30;;;12.30;99.90;;;;;;5078177;28;20028;-61
2022/01/01 04:44:20;;;;;;;13.70;5.93;;;12.30;99.90;;;;;;5078235;28;20047;-61
2022/01/01 04:46:46;;;;;;;14.63;5.93;;;12.20;99.90;;;;;;5078202;28;20291;-61
2022/01/01 04:49:11;;;;;;;11.25;6.13;;;12.10;99.90;;;;;;5078117;28;20299;-61
2022/01/01 04:51:37;;;;;;;14.15;5.72;;;12.00;99.90;;;;;;5078155;28;20063;-61
2022/01/01 04:54:07;;;;;;;15.13;6.15;;;11.90;99.90;;;;;;5078071;28;20047;-61
2022/01/01 04:56:34;;;;;;;16.30;6.50;;;11.90;99.90;;;;;;5078283;28;20063;-61
2022/01/01 04:59:03;;;;;;;10.38;6.30;;;11.80;99.90;;;;;;5077938;28;20032;-61
2022/01/01 05:01:29;;;;;;;11.93;6.35;;;11.80;99.90;;;;;;5078056;28;20417;-61
2022/01/01 05:03:55;;;;;;;15.63;6.40;;;11.70;99.90;;;;;;5077808;28;20127;-61
2022/01/01 05:06:21;;;;;;;12.50;6.78;;;11.70;99.90;;;;;;5077831;28;20028;-60
2022/01/01 05:08:46;;;;;;;13.50;6.35;;;11.70;99.90;;;;;;5077799;28;20085;-60
2022/01/01 05:11:12;;;;;;;11.27;6.60;;;11.60;99.90;;;;;;5077273;28;20036;-60
2022/01/01 05:13:38;;;;;;;15.68;6.85;;;11.60;99.90;;;;;;5077978;28;20094;-60
2022/01/01 05:16:04;;;;;;;16.30;7.10;;;11.60;99.90;;;;;;5076946;28;20040;-61
2022/01/01 05:18:30;;;;;;;17.77;7.40;;;11.60;99.90;;;;;;5077647;28;20037;-60
2022/01/01 05:20:56;;;;;;;10.60;6.75;;;11.60;99.90;;;;;;5077616;28;20411;-59
2022/01/01 05:23:22;;;;;;;14.18;7.15;;;11.60;99.90;;;;;;5077413;28;20028;-61
2022/01/01 05:25:47;;;;;;;16.67;7.97;;;11.60;99.90;;;;;;5077530;28;20060;-61
2022/01/01 05:28:13;;;;;;;13.38;6.75;;;11.60;99.90;;;;;;5077557;28;20024;-60
2022/01/01 05:30:39;;;;;;;14.85;6.95;;;11.60;99.90;;;;;;5077447;28;20059;-60
2022/01/01 05:33:05;;;;;;;15.68;7.80;;;11.50;99.90;;;;;;5077602;28;20028;-62
2022/01/01 05:35:31;;;;;;;14.73;6.78;;;11.60;99.90;;;;;;5076412;28;20109;-61
2022/01/01 05:37:57;;;;;;;16.48;7.20;;;11.60;99.90;;;;;;5077163;28;20025;-61
2022/01/01 05:40:23;;;;;;;14.02;6.93;;;11.60;99.90;;;;;;5076470;28;20024;-61
2022/01/01 05:42:49;;;;;;;12.55;6.75;;;11.60;99.90;;;;;;5077202;28;20043;-61
2022/01/01 05:45:15;;;;;;;13.20;6.82;;;11.60;99.90;;;;;;5077744;28;20028;-59
2022/01/01 05:47:41;;;;;;;14.98;6.97;;;11.60;99.90;;;;;;5077547;28;20104;-61
2022/01/01 05:50:07;;;;;;;16.98;7.28;;;11.60;99.90;;;;;;5077095;28;20033;-61
2022/01/01 05:52:33;;;;;;;13.07;6.28;;;11.70;99.90;;;;;;5076370;28;20045;-61
2022/01/01 05:54:59;;;;;;;13.75;7.10;;;11.70;99.90;;;;;;5076957;28;20032;-61
2022/01/01 05:57:25;;;;;;;14.10;6.88;;;11.70;99.90;;;;;;5077220;28;20024;-61
2022/01/01 05:59:50;;;;;;;16.85;7.38;;;11.80;99.90;;;;;;5077618;28;20035;-61
2022/01/01 06:02:16;;;;;;;14.25;6.80;;;11.80;99.90;;;;;;5077255;28;20036;-61
2022/01/01 06:04:42;;;;;;;16.45;7.70;;;11.80;99.90;;;;;;5077229;28;20040;-61
2022/01/01 06:07:08;;;;;;;14.27;7.55;;;11.80;99.90;;;;;;5077109;28;20035;-61
2022/01/01 06:09:34;;;;;;;14.98;6.93;;;11.90;99.90;;;;;;5076949;28;20068;-61
2022/01/01 06:11:59;;;;;;;13.35;7.40;;;11.90;99.90;;;;;;5076940;28;20072;-61
2022/01/01 06:14:25;;;;;;;12.65;7.20;;;11.90;99.90;;;;;;5076980;28;20484;-61
2022/01/01 06:16:51;;;;;;;16.33;7.35;;;12.00;99.90;;;;;;5076817;28;20051;-60
2022/01/01 06:19:17;;;;;;;13.23;7.55;;;12.00;99.90;;;;;;5076087;28;20344;-60
2022/01/01 06:21:43;;;;;;;13.27;7.20;;;12.00;99.90;;;;;;5076856;28;20058;-60
2022/01/01 06:24:09;;;;;;;25.02;8.05;;;11.90;99.90;;;;;;5076793;28;20032;-60
2022/01/01 06:26:34;;;;;;;13.60;7.10;;;11.90;99.90;;;;;;5076812;28;20040;-60
2022/01/01 06:29:01;;;;;;;11.48;7.13;;;11.90;99.90;;;;;;5076697;28;20025;-60
2022/01/01 06:31:28;;;;;;;15.00;7.35;;;11.90;99.90;;;;;;5076720;28;20036;-60
2022/01/01 06:33:54;;;;;;;13.68;7.28;;;11.90;99.90;;;;;;5059702;28;20101;-61
2022/01/01 06:36:20;;;;;;;18.83;8.35;;;11.90;99.90;;;;;;5077260;28;20099;-61
2022/01/01 06:38:46;;;;;;;14.10;8.02;;;12.00;99.90;;;;;;5076649;28;20056;-61
2022/01/01 06:41:12;;;;;;;13.80;7.72;;;12.10;99.90;;;;;;5079755;28;20077;-61
2022/01/01 06:43:38;;;;;;;13.98;8.10;;;12.10;99.90;;;;;;5080533;28;20103;-61
2022/01/01 06:46:08;;;;;;;18.52;8.30;;;12.10;99.90;;;;;;5080834;28;20399;-60
2022/01/01 06:48:34;;;;;;;18.98;8.30;;;12.00;99.90;;;;;;5080442;28;20299;-60
2022/01/01 06:51:00;;;;;;;16.02;8.32;;;11.90;99.90;;;;;;5080443;28;20300;-60
2022/01/01 06:53:27;;;;;;;18.00;8.85;;;11.90;99.90;;;;;;5063263;28;20040;-61
2022/01/01 06:55:52;;;;;;;15.35;8.93;;;11.90;99.90;;;;;;5080339;28;20033;-60
2022/01/01 06:58:18;;;;;;;17.48;8.60;;;11.90;99.90;;;;;;5080123;28;20047;-61
2022/01/01 07:00:44;;;;;;;18.35;8.75;;;11.90;99.90;;;;;;5079571;28;20040;-61
2022/01/01 07:03:10;;;;;;;17.27;9.60;;;11.90;99.90;;;;;;5079512;28;20029;-61
2022/01/01 07:05:36;;;;;;;18.08;9.88;;;11.80;99.90;;;;;;5080197;28;20042;-60
2022/01/01 07:08:02;;;;;;;20.67;9.73;;;11.80;99.90;;;;;;5079283;28;20469;-61
2022/01/01 07:10:28;;;;;;;16.95;10.05;;;11.70;99.90;;;;;;5079389;28;20041;-60
2022/01/01 07:12:54;;;;;;;19.65;10.73;;;11.70;99.90;;;;;;5079411;28;20021;-61
2022/01/01 07:15:20;;;;;;;19.00;10.52;;;11.70;99.90;;;;;;5079981;28;20298;-61
2022/01/01 07:17:46;;;;;;;18.27;10.40;;;11.60;99.90;;;;;;5079804;28;20387;-61
2022/01/01 07:20:12;;;;;;;22.00;11.93;;;11.60;99.90;;;;;;5079870;28;20029;-61
2022/01/01 07:22:44;;;;;;;21.00;11.55;;;11.60;99.90;;;;;;5080282;28;20024;-61
2022/01/01 07:25:12;;;;;;;17.30;10.95;;;11.60;99.90;;;;;;5079790;28;20033;-60
2022/01/01 07:27:39;;;;;;;21.15;11.43;;;11.50;99.90;;;;;;5079729;28;20056;-61
2022/01/01 07:30:06;;;;;;;19.67;11.65;;;11.50;99.90;;;;;;5080267;28;20067;-61
2022/01/01 07:32:32;;;;;;;20.05;12.00;;;11.50;99.90;;;;;;5079585;28;20117;-61
2022/01/01 07:34:59;;;;;;;17.15;11.52;;;11.40;99.90;;;;;;5079487;28;20426;-61
2022/01/01 07:37:25;;;;;;;21.30;11.65;;;11.40;99.90;;;;;;5079899;28;20039;-60
2022/01/01 07:39:50;;;;;;;23.63;11.85;;;11.30;99.90;;;;;;5080116;28;20391;-60
2022/01/01 07:42:16;;;;;;;22.20;12.90;;;11.30;99.90;;;;;;5080002;28;20086;-61
2022/01/01 07:44:43;;;;;;;22.02;12.98;;;11.20;99.90;;;;;;5079448;28;20153;-61
2022/01/01 07:47:08;;;;;;;25.98;14.10;;;11.20;99.90;;;;;;5079383;28;20050;-61
2022/01/01 07:49:35;;;;;;;22.25;13.07;;;11.20;99.90;;;;;;5062173;28;20431;-61
2022/01/01 07:52:00;;;;;;;22.85;14.55;;;11.20;99.90;;;;;;5077946;28;20052;-61
2022/01/01 07:54:26;;;;;;;22.50;13.90;;;11.10;99.90;;;;;;5078523;28;20043;-61
2022/01/01 07:56:52;;;;;;;24.13;13.88;;;11.10;99.90;;;;;;5079046;28;20032;-60
2022/01/01 07:59:18;;;;;;;23.67;13.68;;;11.10;99.90;;;;;;5079156;28;20048;-60
2022/01/01 08:01:43;;;;;;;23.83;14.45;;;11.10;99.90;;;;;;5079681;28;20028;-60
2022/01/01 08:04:12;;;;;;;25.23;14.77;;;11.10;99.90;;;;;;5078153;28;20127;-59
2022/01/01 08:06:38;;;;;;;21.90;14.18;;;11.20;99.90;;;;;;5078950;28;20108;-61
2022/01/01 08:09:04;;;;;;;20.52;14.05;;;11.20;99.90;;;;;;5078982;28;20107;-60
2022/01/01 08:11:30;;;;;;;23.55;15.38;;;11.40;99.90;;;;;;5078816;28;20043;-60
2022/01/01 08:13:56;;;;;;;26.77;14.50;;;11.40;99.90;;;;;;5078882;28;20029;-59
2022/01/01 08:16:22;;;;;;;26.23;15.23;;;11.40;99.90;;;;;;5078812;28;20328;-60
2022/01/01 08:18:48;;;;;;;27.60;15.88;;;11.50;99.90;;;;;;5078781;28;20119;-61
2022/01/01 08:21:14;;;;;;;24.60;15.23;;;11.50;99.90;;;;;;5078692;28;20293;-61
2022/01/01 08:23:39;;;;;;;27.67;15.52;;;11.50;99.90;;;;;;5078704;28;20048;-61
2022/01/01 08:26:05;;;;;;;29.25;15.57;;;11.50;99.90;;;;;;5078925;28;20388;-61
2022/01/01 08:28:31;;;;;;;22.50;15.50;;;11.50;99.90;;;;;;5078646;28;20403;-59
2022/01/01 08:30:58;;;;;;;23.77;15.07;;;11.40;99.90;;;;;;5078540;28;20167;-59
2022/01/01 08:33:24;;;;;;;27.33;16.45;;;11.30;99.90;;;;;;5077772;28;20111;-61
2022/01/01 08:35:50;;;;;;;28.63;16.90;;;11.40;99.90;;;;;;5078250;28;20140;-61
2022/01/01 08:38:16;;;;;;;26.95;15.98;;;11.40;99.90;;;;;;5077650;28;20032;-60
2022/01/01 08:40:42;;;;;;;24.92;15.95;;;11.40;99.90;;;;;;5078334;28;20052;-60
2022/01/01 08:43:08;;;;;;;30.13;16.42;;;11.40;99.90;;;;;;5078282;28;20047;-59
2022/01/01 08:45:38;;;;;;;27.13;17.08;;;11.30;99.90;;;;;;5078252;28;20029;-59
2022/01/01 08:48:05;;;;;;;26.33;16.30;;;11.30;99.90;;;;;;5078166;28;20075;-59
2022/01/01 08:50:32;;;;;;;24.95;16.55;;;11.30;99.90;;;;;;5078198;28;20043;-59
2022/01/01 08:52:57;;;;;;;27.38;16.08;;;11.30;99.90;;;;;;5078089;28;20087;-58
2022/01/01 08:55:25;;;;;;;26.13;17.15;;;11.30;99.90;;;;;;5078045;28;20131;-59
2022/01/01 08:57:51;;;;;;;27.35;16.30;;;11.30;99.90;;;;;;5078144;28;20416;-59
2022/01/01 09:00:17;;;;;;;30.38;16.95;;;11.30;99.90;;;;;;5077788;28;20125;-59
2022/01/01 09:02:43;;;;;;;24.63;15.98;;;11.30;99.90;;;;;;5077379;28;20387;-60
2022/01/01 09:05:09;;;;;;;27.23;17.10;;;11.30;99.90;;;;;;5077670;28;20028;-59
2022/01/01 09:07:35;;;;;;;25.02;16.13;;;11.30;99.90;;;;;;5077620;28;20028;-60
2022/01/01 09:10:03;;;;;;;25.20;16.67;;;11.30;99.90;;;;;;5077719;28;20119;-61
2022/01/01 09:12:29;;;;;;;22.33;15.80;;;11.40;99.90;;;;;;5077623;28;20032;-60
2022/01/01 09:14:56;;;;;;;25.75;16.02;;;11.50;99.90;;;;;;5077666;28;20060;-61
2022/01/01 09:17:22;;;;;;;24.90;15.65;;;11.50;99.90;;;;;;5077370;28;20047;-60
2022/01/01 09:19:48;;;;;;;25.38;15.38;;;11.50;99.90;;;;;;5076693;28;20042;-59
2022/01/01 09:22:14;;;;;;;22.67;15.05;;;11.50;99.90;;;;;;5077432;28;20035;-60
2022/01/01 09:24:40;;;;;;;23.25;14.40;;;11.50;99.90;;;;;;5077697;28;20028;-61
2022/01/01 09:27:06;;;;;;;24.77;14.90;;;11.50;99.90;;;;;;5077342;28;20028;-60
2022/01/01 09:29:32;;;;;;;21.25;14.70;;;11.50;99.90;;;;;;5077244;28;20032;-60
2022/01/01 09:31:58;;;;;;;20.63;13.85;;;11.50;99.90;;;;;;5076378;28;20277;-60
2022/01/01 09:34:24;;;;;;;22.52;13.77;;;11.50;99.90;;;;;;5077366;28;20418;-59
2022/01/01 09:36:51;;;;;;;21.77;14.32;;;11.50;99.90;;;;;;5076917;28;20060;-60
2022/01/01 09:39:17;;;;;;;21.00;13.65;;;11.50;99.90;;;;;;5077072;28;20033;-60
2022/01/01 09:41:44;;;;;;;24.17;14.13;;;11.50;99.90;;;;;;5076972;28;20317;-60
2022/01/01 09:44:16;;;;;;;20.83;13.57;;;11.50;99.90;;;;;;5076884;28;20025;-59
2022/01/01 09:46:44;;;;;;;19.83;12.60;;;11.50;99.90;;;;;;5076913;28;20395;-60
2022/01/01 09:49:14;;;;;;;17.45;11.43;;;11.50;99.90;;;;;;5076824;28;20117;-59
2022/01/01 09:51:41;;;;;;;20.08;12.82;;;11.50;99.90;;;;;;5077102;28;20036;-59
2022/01/01 09:54:07;;;;;;;17.88;12.02;;;11.50;99.90;;;;;;5076915;28;20028;-59
2022/01/01 09:56:33;;;;;;;18.75;12.55;;;11.50;99.90;;;;;;5076664;28;20381;-61
2022/01/01 09:58:59;;;;;;;18.67;12.30;;;11.60;99.90;;;;;;5076817;28;20074;-60
2022/01/01 10:01:25;;;;;;;18.33;11.63;;;11.60;99.90;;;;;;5076218;28;20341;-61
2022/01/01 10:03:53;;;;;;;18.15;11.05;;;11.70;99.90;;;;;;5077106;28;20028;-59
2022/01/01 10:06:20;;;;;;;16.35;11.55;;;11.80;99.90;;;;;;5076919;28;20384;-60
2022/01/01 10:08:56;;;;;;;17.75;11.02;;;11.80;99.90;;;;;;5076914;28;20111;-60
2022/01/01 10:11:24;;;;;;;14.60;10.52;;;11.80;99.90;;;;;;5076836;28;20028;-59
2022/01/01 10:13:50;;;;;;;14.50;11.25;;;11.80;99.90;;;;;;5076502;28;20277;-60
2022/01/01 10:16:16;;;;;;;15.70;10.63;;;11.70;99.90;;;;;;5076257;28;20040;-59
2022/01/01 10:18:44;;;;;;;15.82;10.50;;;11.70;99.90;;;;;;5076637;28;20119;-60
2022/01/01 10:21:13;;;;;;;13.70;9.57;;;11.80;99.90;;;;;;5076751;28;20450;-60
2022/01/01 10:23:42;;;;;;;13.82;9.32;;;11.90;99.90;;;;;;5076678;28;20035;-60
2022/01/01 10:29:14;;;;;;;11.85;8.93;;;12.00;99.90;;;;;;5076809;28;20099;-60
2022/01/01 10:31:59;;;;;;;12.00;8.85;;;12.10;99.90;;;;;;5076570;28;20342;-61
2022/01/01 10:34:36;;;;;;;13.07;8.38;;;12.20;99.90;;;;;;5077231;28;20028;-59
2022/01/01 10:37:06;;;;;;;12.25;8.30;;;12.30;99.90;;;;;;5076391;28;20088;-58
2022/01/01 10:39:32;;;;;;;11.25;8.30;;;12.20;99.90;;;;;;5075863;28;20040;-58
2022/01/01 10:42:06;;;;;;;12.32;8.32;;;12.20;99.90;;;;;;5076494;28;20040;-59
2022/01/01 10:44:39;;;;;;;10.55;8.05;;;12.30;99.90;;;;;;5075759;28;20024;-63
2022/01/01 10:47:12;;;;;;;9.80;7.22;;;12.50;99.90;;;;;;5076501;28;20052;-58
2022/01/01 10:52:13;;;;;;;10.32;7.45;;;12.90;99.90;;;;;;5076521;28;20039;-59
2022/01/01 10:54:50;;;;;;;11.43;7.20;;;13.10;99.90;;;;;;5075720;28;20067;-59
2022/01/01 10:57:33;;;;;;;10.45;6.85;;;13.30;99.90;;;;;;5076494;28;20040;-60
2022/01/01 11:00:20;;;;;;;7.90;6.35;;;13.50;99.90;;;;;;5076509;28;20105;-61
2022/01/01 11:02:59;;;;;;;7.80;6.10;;;13.70;99.90;;;;;;5076388;28;20021;-60
2022/01/01 11:05:30;;;;;;;10.68;6.30;;;13.50;99.90;;;;;;5076948;28;20028;-59
2022/01/01 11:07:57;;;;;;;9.82;6.20;;;13.70;99.90;;;;;;5076350;28;20064;-59
2022/01/01 11:10:24;;;;;;;6.70;6.00;;;13.80;99.90;;;;;;5075924;28;20410;-60
2022/01/01 11:12:51;;;;;;;7.60;5.80;;;13.90;99.90;;;;;;5075435;28;20040;-58
2022/01/01 11:15:17;;;;;;;7.55;5.97;;;13.90;99.90;;;;;;5075637;28;20396;-59
2022/01/01 11:17:43;;;;;;;7.50;6.15;;;13.60;99.90;;;;;;5075177;28;20028;-60
2022/01/01 11:20:10;;;;;;;8.52;6.32;;;13.60;99.90;;;;;;5076150;28;20024;-61
2022/01/01 11:22:36;;;;;;;7.32;5.60;;;13.70;99.90;;;;;;5076260;28;20024;-60
2022/01/01 11:25:04;;;;;;;7.90;6.20;;;13.80;99.90;;;;;;5076333;28;20024;-59
2022/01/01 11:27:31;;;;;;;7.15;6.20;;;13.80;99.90;;;;;;5078660;28;20025;-61
2022/01/01 11:29:59;;;;;;;8.13;6.07;;;14.10;99.90;;;;;;5079808;28;20082;-60
2022/01/01 11:32:37;;;;;;;9.68;6.63;;;14.20;99.90;;;;;;5062407;28;20040;-58
2022/01/01 11:35:07;;;;;;;9.85;6.68;;;14.00;99.90;;;;;;5078746;28;20315;-60
2022/01/01 11:37:59;;;;;;;9.15;6.90;;;14.00;99.90;;;;;;5079485;28;20301;-59
2022/01/01 11:40:27;;;;;;;7.85;6.80;;;14.00;99.90;;;;;;5079509;28;20059;-60
2022/01/01 11:42:52;;;;;;;8.90;6.07;;;14.00;99.90;;;;;;5079397;28;20150;-60
2022/01/01 11:45:42;;;;;;;7.10;6.35;;;14.20;99.90;;;;;;5079332;28;20037;-60
2022/01/01 11:48:26;;;;;;;8.68;5.95;;;14.30;99.90;;;;;;5079350;28;20032;-59
2022/01/01 11:50:52;;;;;;;7.75;6.13;;;14.20;99.90;;;;;;5062028;28;20047;-60
2022/01/01 11:53:29;;;;;;;8.05;6.40;;;14.30;99.90;;;;;;5078673;28;20036;-61
2022/01/01 11:56:12;;;;;;;7.75;6.13;;;14.30;99.90;;;;;;5079937;28;20021;-59
2022/01/01 11:58:52;;;;;;;7.25;6.15;;;14.40;99.90;;;;;;5079129;28;20120;-59
2022/01/01 12:01:21;;;;;;;7.28;5.50;;;14.40;99.90;;;;;;5078337;28;20024;-60
2022/01/01 12:03:54;;;;;;;6.25;5.05;;;14.30;99.90;;;;;;5079161;28;20102;-58
2022/01/01 12:06:20;;;;;;;6.32;5.00;;;14.20;99.90;;;;;;5079056;28;20289;-59
2022/01/01 12:08:49;;;;;;;7.95;4.53;;;14.10;99.90;;;;;;5077813;28;20043;-57
2022/01/01 12:11:29;;;;;;;6.07;4.28;;;14.20;99.90;;;;;;5078641;28;20090;-60
2022/01/01 12:13:56;;;;;;;5.15;4.38;;;14.40;99.90;;;;;;5078796;28;20029;-59
2022/01/01 12:16:22;;;;;;;4.13;3.75;;;14.40;99.90;;;;;;5079225;28;20028;-59
2022/01/01 12:18:48;;;;;;;6.68;4.10;;;14.50;99.90;;;;;;5061110;28;20080;-59
2022/01/01 12:21:22;;;;;;;4.53;3.67;;;14.60;99.90;;;;;;5078872;28;20336;-60
2022/01/01 12:23:54;;;;;;;3.92;2.85;;;14.70;99.90;;;;;;5078500;28;20029;-59
2022/01/01 12:26:31;;;;;;;4.50;2.92;;;14.80;99.90;;;;;;5078897;28;20105;-59
2022/01/01 12:29:07;;;;;;;3.38;2.78;;;15.00;99.90;;;;;;5078396;28;20036;-59
2022/01/01 12:31:34;;;;;;;3.72;2.70;;;15.00;99.90;;;;;;5078845;28;20036;-59
2022/01/01 12:34:09;;;;;;;4.05;2.50;;;15.10;99.90;;;;;;5078556;28;20470;-60
2022/01/01 12:36:35;;;;;;;3.25;2.20;;;15.10;99.90;;;;;;5078129;28;20052;-58
2022/01/01 12:39:08;;;;;;;2.60;2.20;;;14.90;99.90;;;;;;5077246;28;20028;-59
2022/01/01 12:41:44;;;;;;;3.25;2.20;;;14.90;99.90;;;;;;5078209;28;20043;-60
2022/01/01 12:44:22;;;;;;;3.30;1.92;;;15.10;99.90;;;;;;5078200;28;20141;-59